createdAt,value
2024-05-09T00:00:31.563Z,58.06348
2024-05-09T00:01:27.973Z,58.17773
2024-05-09T00:02:27.912Z,58.10547
2024-05-09T00:03:27.993Z,58.12598
2024-05-09T00:04:27.988Z,58.23145
2024-05-09T00:05:26.978Z,58.24316
2024-05-09T00:06:29.794Z,58.04785
2024-05-09T00:07:26.952Z,58.08105
2024-05-09T00:08:27.961Z,58.125
2024-05-09T00:09:27.919Z,58.13672
2024-05-09T00:10:35.213Z,58.05273
2024-05-09T00:11:27.983Z,58.2002
2024-05-09T00:12:26.957Z,58.29297
2024-05-09T00:13:27.916Z,58.13086
2024-05-09T00:14:27.999Z,58.32617
2024-05-09T00:15:26.917Z,58.04883
2024-05-09T00:16:27.901Z,58.33301
2024-05-09T00:17:27.110Z,58.18164
2024-05-09T00:18:28.088Z,58.13379
2024-05-09T00:19:28.084Z,58.26074
2024-05-09T00:20:35.125Z,58.2832
2024-05-09T00:21:27.923Z,58.19727
2024-05-09T00:22:26.989Z,58.56152
2024-05-09T00:23:27.987Z,58.20215
2024-05-09T00:24:26.948Z,58.38672
2024-05-09T00:25:27.011Z,58.36426
2024-05-09T00:26:28.053Z,58.39941
2024-05-09T00:27:26.952Z,58.33008
2024-05-09T00:28:27.957Z,58.20215
2024-05-09T00:29:27.072Z,58.54688
2024-05-09T00:30:33.599Z,58.33594
2024-05-09T00:31:27.956Z,58.48438
2024-05-09T00:32:27.030Z,58.42773
2024-05-09T00:33:28.321Z,58.35449
2024-05-09T00:34:27.089Z,58.60938
2024-05-09T00:35:30.034Z,58.67383
2024-05-09T00:36:26.971Z,58.46777
2024-05-09T00:37:27.027Z,58.66211
2024-05-09T00:38:27.994Z,58.45508
2024-05-09T00:39:26.984Z,58.53613
2024-05-09T00:40:35.717Z,58.59961
2024-05-09T00:41:28.018Z,58.7998
2024-05-09T00:42:26.981Z,58.94434
2024-05-09T00:43:27.991Z,58.78223
2024-05-09T00:44:27.005Z,58.97363
2024-05-09T00:45:28.012Z,59.28809
2024-05-09T00:46:27.033Z,59.4209
2024-05-09T00:47:27.227Z,59.46094
2024-05-09T00:48:28.150Z,59.11914
2024-05-09T00:49:27.193Z,59.28027
2024-05-09T00:50:35.571Z,59.63965
2024-05-09T00:51:27.028Z,59.24023
2024-05-09T00:52:29.616Z,59.56055
2024-05-09T00:53:28.107Z,59.47656
2024-05-09T00:54:27.005Z,59.42188
2024-05-09T00:55:28.055Z,59.46387
2024-05-09T00:56:27.131Z,59.37012
2024-05-09T00:57:28.019Z,59.24512
2024-05-09T00:58:28.014Z,59.24121
2024-05-09T00:59:27.082Z,59.4707
2024-05-09T01:00:35.925Z,59.66016
2024-05-09T01:01:28.058Z,59.56445
2024-05-09T01:02:28.086Z,59.5625
2024-05-09T01:03:28.310Z,59.09863
2024-05-09T01:04:29.952Z,59.18359
2024-05-09T01:05:27.054Z,59.21484
2024-05-09T01:06:27.034Z,59.12305
2024-05-09T01:07:28.076Z,59.37109
2024-05-09T01:08:28.086Z,59.05371
2024-05-09T01:09:28.048Z,59.26172
2024-05-09T01:10:33.688Z,59.51953
2024-05-09T01:11:27.103Z,59.63184
2024-05-09T01:12:28.202Z,59.61719
2024-05-09T01:13:28.050Z,59.45508
2024-05-09T01:14:28.132Z,59.61523
2024-05-09T01:15:27.070Z,59.43848
2024-05-09T01:16:27.057Z,59.77539
2024-05-09T01:17:28.262Z,59.59375
2024-05-09T01:18:28.072Z,59.27832
2024-05-09T01:19:28.306Z,59.50781
2024-05-09T01:20:36.978Z,59.26953
2024-05-09T01:21:28.068Z,59.24707
2024-05-09T01:22:27.115Z,59.15527
2024-05-09T01:23:28.148Z,59.19824
2024-05-09T01:24:28.122Z,59.21191
2024-05-09T01:25:27.079Z,59.15625
2024-05-09T01:26:28.177Z,59.41797
2024-05-09T01:27:27.082Z,59.23535
2024-05-09T01:28:28.082Z,59.31445
2024-05-09T01:29:28.333Z,59.4502
2024-05-09T01:30:33.033Z,59.39355
2024-05-09T01:31:28.075Z,59.64063
2024-05-09T01:32:27.383Z,59.46777
2024-05-09T01:33:30.219Z,59.43164
2024-05-09T01:34:27.100Z,59.47949
2024-05-09T01:35:27.176Z,59.60156
2024-05-09T01:36:28.107Z,59.84961
2024-05-09T01:37:27.129Z,59.81348
2024-05-09T01:38:28.260Z,59.66309
2024-05-09T01:39:27.107Z,59.6543
2024-05-09T01:40:36.331Z,59.68457
2024-05-09T01:41:28.245Z,59.97461
2024-05-09T01:42:27.114Z,60.05273
2024-05-09T01:43:28.119Z,59.81543
2024-05-09T01:44:27.199Z,59.80566
2024-05-09T01:45:27.122Z,60.23438
2024-05-09T01:46:28.113Z,60.08594
2024-05-09T01:47:27.332Z,60.26563
2024-05-09T01:48:28.189Z,60.04688
2024-05-09T01:49:27.216Z,60.18555
2024-05-09T01:50:37.695Z,60.2627
2024-05-09T01:51:28.128Z,60.31543
2024-05-09T01:52:27.144Z,60.38184
2024-05-09T01:53:28.226Z,60.22363
2024-05-09T01:54:27.145Z,60.40723
2024-05-09T01:55:28.137Z,60.21484
2024-05-09T01:56:27.272Z,60.34766
2024-05-09T01:57:27.153Z,60.31348
2024-05-09T01:58:28.142Z,59.94824
2024-05-09T01:59:27.394Z,60.25391
2024-05-09T02:00:37.101Z,60.36523
2024-05-09T02:01:28.328Z,60.17188
2024-05-09T02:02:30.090Z,60.26563
2024-05-09T02:03:28.415Z,60.11621
2024-05-09T02:04:27.302Z,60.26367
2024-05-09T02:05:28.312Z,60.51855
2024-05-09T02:06:27.170Z,60.69824
2024-05-09T02:07:28.157Z,60.3584
2024-05-09T02:08:28.197Z,60.33203
2024-05-09T02:09:27.174Z,60.47949
2024-05-09T02:10:32.502Z,60.24121
2024-05-09T02:11:27.257Z,60.41309
2024-05-09T02:12:28.238Z,60.50391
2024-05-09T02:13:28.166Z,60.20801
2024-05-09T02:14:27.414Z,60.32422
2024-05-09T02:15:28.192Z,60.36719
2024-05-09T02:16:27.198Z,60.44238
2024-05-09T02:17:28.388Z,60.42285
2024-05-09T02:18:28.372Z,60.16504
2024-05-09T02:19:28.320Z,60.63184
2024-05-09T02:20:33.439Z,60.77539
2024-05-09T02:21:27.196Z,60.60254
2024-05-09T02:22:28.248Z,60.55762
2024-05-09T02:23:28.262Z,60.34766
2024-05-09T02:24:28.221Z,60.04785
2024-05-09T02:25:27.208Z,60.07715
2024-05-09T02:26:27.318Z,60.17773
2024-05-09T02:27:28.225Z,60.37109
2024-05-09T02:28:28.206Z,60.61426
2024-05-09T02:29:28.320Z,60.32129
2024-05-09T02:30:36.266Z,60.37207
2024-05-09T02:31:30.143Z,61.02734
2024-05-09T02:32:27.441Z,60.68652
2024-05-09T02:33:28.493Z,60.96973
2024-05-09T02:34:28.245Z,60.99805
2024-05-09T02:35:27.343Z,60.7002
2024-05-09T02:36:28.230Z,60.86621
2024-05-09T02:37:27.278Z,60.97559
2024-05-09T02:38:28.272Z,61.13477
2024-05-09T02:39:28.236Z,60.85449
2024-05-09T02:40:35.667Z,60.96289
2024-05-09T02:41:28.333Z,60.72363
2024-05-09T02:42:27.245Z,60.54102
2024-05-09T02:43:28.238Z,60.45215
2024-05-09T02:44:28.300Z,60.48926
2024-05-09T02:45:27.256Z,60.18652
2024-05-09T02:46:28.272Z,60.37793
2024-05-09T02:47:27.388Z,60.64355
2024-05-09T02:48:31.731Z,61.01367
2024-05-09T02:49:27.308Z,60.83594
2024-05-09T02:50:34.462Z,61.02539
2024-05-09T02:51:28.442Z,60.91992
2024-05-09T02:52:27.273Z,60.68164
2024-05-09T02:53:28.404Z,60.8623
2024-05-09T02:54:27.273Z,60.93555
2024-05-09T02:55:27.323Z,60.50195
2024-05-09T02:56:28.395Z,60.67676
2024-05-09T02:57:27.282Z,60.84473
2024-05-09T02:58:28.281Z,60.81055
2024-05-09T02:59:27.428Z,60.67969
2024-05-09T03:00:39.020Z,60.52148
2024-05-09T03:01:27.309Z,60.68164
2024-05-09T03:02:27.415Z,60.58203
2024-05-09T03:03:29.486Z,60.48047
2024-05-09T03:04:27.350Z,60.62891
2024-05-09T03:05:28.361Z,60.78125
2024-05-09T03:06:27.300Z,60.80957
2024-05-09T03:07:27.343Z,60.73828
2024-05-09T03:08:28.964Z,60.76953
2024-05-09T03:09:27.304Z,60.95605
2024-05-09T03:10:29.082Z,60.66211
2024-05-09T03:11:27.416Z,60.60645
2024-05-09T03:12:27.375Z,60.77539
2024-05-09T03:13:29.005Z,60.8623
2024-05-09T03:14:27.530Z,60.50293
2024-05-09T03:15:28.295Z,60.79395
2024-05-09T03:16:27.362Z,60.47852
2024-05-09T03:17:28.399Z,60.81445
2024-05-09T03:18:29.839Z,60.71094
2024-05-09T03:19:27.444Z,60.58008
2024-05-09T03:20:33.606Z,60.52051
2024-05-09T03:21:27.331Z,60.29688
2024-05-09T03:22:28.326Z,60.67969
2024-05-09T03:23:29.778Z,60.39258
2024-05-09T03:24:27.348Z,60.36914
2024-05-09T03:25:28.330Z,60.39453
2024-05-09T03:26:27.462Z,60.52832
2024-05-09T03:27:28.347Z,60.45117
2024-05-09T03:28:29.793Z,60.36719
2024-05-09T03:29:30.346Z,60.24316
2024-05-09T03:30:35.987Z,60.79688
2024-05-09T03:31:28.350Z,60.75879
2024-05-09T03:32:28.435Z,60.7832
2024-05-09T03:33:30.937Z,60.92773
2024-05-09T03:34:28.416Z,61.06641
2024-05-09T03:35:27.404Z,60.92871
2024-05-09T03:36:27.363Z,61.28809
2024-05-09T03:37:28.364Z,61.14941
2024-05-09T03:38:30.523Z,61.12793
2024-05-09T03:39:28.387Z,61.02832
2024-05-09T03:40:30.819Z,61.0166
2024-05-09T03:41:27.405Z,60.81445
2024-05-09T03:42:28.401Z,60.80566
2024-05-09T03:43:30.644Z,60.77344
2024-05-09T03:44:28.468Z,61.00391
2024-05-09T03:45:27.419Z,60.74316
2024-05-09T03:46:28.389Z,60.76563
2024-05-09T03:47:27.569Z,60.86426
2024-05-09T03:48:27.546Z,60.91797
2024-05-09T03:49:28.451Z,60.73145
2024-05-09T03:50:33.697Z,60.73926
2024-05-09T03:51:28.383Z,60.85352
2024-05-09T03:52:27.404Z,60.67383
2024-05-09T03:53:27.465Z,60.95508
2024-05-09T03:54:28.422Z,60.95898
2024-05-09T03:55:27.460Z,60.91309
2024-05-09T03:56:28.425Z,60.86523
2024-05-09T03:57:27.413Z,61.13574
2024-05-09T03:58:36.492Z,60.87695
2024-05-09T03:59:27.624Z,60.81055
2024-05-09T04:00:35.204Z,60.91113
2024-05-09T04:01:28.477Z,60.71973
2024-05-09T04:02:27.478Z,61.04492
2024-05-09T04:03:28.669Z,60.86523
2024-05-09T04:04:28.489Z,60.61816
2024-05-09T04:05:27.487Z,60.64941
2024-05-09T04:06:28.446Z,60.97754
2024-05-09T04:07:27.480Z,60.89648
2024-05-09T04:08:28.499Z,60.44238
2024-05-09T04:09:28.425Z,60.51465
2024-05-09T04:10:32.810Z,60.68262
2024-05-09T04:11:28.530Z,60.40234
2024-05-09T04:12:27.530Z,60.37891
2024-05-09T04:13:28.470Z,60.51465
2024-05-09T04:14:28.571Z,60.29199
2024-05-09T04:15:28.442Z,60.74512
2024-05-09T04:16:27.497Z,60.48535
2024-05-09T04:17:27.622Z,60.84668
2024-05-09T04:18:28.612Z,60.68262
2024-05-09T04:19:28.626Z,60.70605
2024-05-09T04:20:36.318Z,60.74805
2024-05-09T04:21:28.448Z,60.76172
2024-05-09T04:22:27.511Z,61.22461
2024-05-09T04:23:28.646Z,61.51855
2024-05-09T04:24:28.454Z,61.11621
2024-05-09T04:25:28.455Z,61.32031
2024-05-09T04:26:27.565Z,61.27637
2024-05-09T04:27:30.374Z,61.80664
2024-05-09T04:28:27.522Z,61.53418
2024-05-09T04:29:28.649Z,61.62109
2024-05-09T04:30:36.654Z,61.69043
2024-05-09T04:31:28.486Z,61.63281
2024-05-09T04:32:28.650Z,61.50879
2024-05-09T04:33:27.688Z,61.62598
2024-05-09T04:34:28.637Z,61.51758
2024-05-09T04:35:28.582Z,61.63379
2024-05-09T04:36:27.501Z,61.77344
2024-05-09T04:37:28.484Z,61.62012
2024-05-09T04:38:27.589Z,61.80176
2024-05-09T04:39:28.525Z,62.04395
2024-05-09T04:40:33.723Z,61.9541
2024-05-09T04:41:27.566Z,61.88965
2024-05-09T04:42:28.504Z,62.19727
2024-05-09T04:43:27.568Z,62.25098
2024-05-09T04:44:28.620Z,62.10742
2024-05-09T04:45:27.526Z,61.65137
2024-05-09T04:46:27.574Z,61.72461
2024-05-09T04:47:28.682Z,62.08203
2024-05-09T04:48:27.704Z,61.9873
2024-05-09T04:49:28.624Z,62.30859
2024-05-09T04:50:36.036Z,62.1416
2024-05-09T04:51:28.520Z,61.90918
2024-05-09T04:52:28.552Z,61.90234
2024-05-09T04:53:27.574Z,61.89746
2024-05-09T04:54:35.800Z,61.9541
2024-05-09T04:55:27.544Z,61.93848
2024-05-09T04:56:30.479Z,61.9082
2024-05-09T04:57:27.549Z,61.97754
2024-05-09T04:58:27.588Z,62.02246
2024-05-09T04:59:28.615Z,61.95801
2024-05-09T05:00:35.320Z,61.70215
2024-05-09T05:01:28.649Z,61.78223
2024-05-09T05:02:27.703Z,62.28223
2024-05-09T05:03:27.854Z,62.22754
2024-05-09T05:04:28.606Z,62.24121
2024-05-09T05:05:27.573Z,62.2793
2024-05-09T05:06:28.604Z,62.14941
2024-05-09T05:07:27.613Z,62.12012
2024-05-09T05:08:27.639Z,62.19043
2024-05-09T05:09:28.576Z,62.1582
2024-05-09T05:10:33.828Z,62.35352
2024-05-09T05:11:28.735Z,62.42578
2024-05-09T05:12:27.653Z,62.30469
2024-05-09T05:13:30.135Z,62.27539
2024-05-09T05:14:28.671Z,62.45898
2024-05-09T05:15:27.587Z,62.36914
2024-05-09T05:16:28.604Z,62.51563
2024-05-09T05:17:27.808Z,62.48828
2024-05-09T05:18:28.806Z,62.52344
2024-05-09T05:19:28.822Z,62.72949
2024-05-09T05:20:33.093Z,62.67285
2024-05-09T05:21:28.626Z,62.91602
2024-05-09T05:22:27.616Z,63.12012
2024-05-09T05:23:28.636Z,63.21582
2024-05-09T05:24:28.591Z,63.16309
2024-05-09T05:25:30.534Z,63.28027
2024-05-09T05:26:27.705Z,63.03418
2024-05-09T05:27:27.609Z,63.49121
2024-05-09T05:28:28.605Z,63.43066
2024-05-09T05:29:28.705Z,63.34668
2024-05-09T05:30:32.962Z,63.10254
2024-05-09T05:31:27.673Z,62.96777
2024-05-09T05:32:27.742Z,63.59277
2024-05-09T05:33:28.803Z,63.69922
2024-05-09T05:34:28.624Z,63.79395
2024-05-09T05:35:28.715Z,63.95117
2024-05-09T05:36:27.629Z,63.95801
2024-05-09T05:37:27.694Z,63.54004
2024-05-09T05:38:28.896Z,63.37305
2024-05-09T05:39:28.638Z,63.38477
2024-05-09T05:40:35.885Z,63.33691
2024-05-09T05:41:27.687Z,63.50195
2024-05-09T05:42:29.514Z,63.71484
2024-05-09T05:43:27.644Z,63.55273
2024-05-09T05:44:28.722Z,63.51465
2024-05-09T05:45:28.635Z,63.41992
2024-05-09T05:46:27.647Z,64.0791
2024-05-09T05:47:28.808Z,64.01465
2024-05-09T05:48:27.843Z,64.70508
2024-05-09T05:49:28.721Z,64.43262
2024-05-09T05:50:35.448Z,64.45996
2024-05-09T05:51:27.671Z,64.63281
2024-05-09T05:52:28.705Z,65.22461
2024-05-09T05:53:27.746Z,65.00586
2024-05-09T05:54:30.625Z,64.62305
2024-05-09T05:55:27.719Z,64.46094
2024-05-09T05:56:27.828Z,64.22363
2024-05-09T05:57:28.720Z,63.93066
2024-05-09T05:58:27.726Z,63.70703
2024-05-09T05:59:28.718Z,63.28223
2024-05-09T06:00:34.455Z,63.4043
2024-05-09T06:01:28.684Z,63.1748
2024-05-09T06:02:28.837Z,63.625
2024-05-09T06:03:27.754Z,63.4873
2024-05-09T06:04:28.714Z,63.74316
2024-05-09T06:05:27.875Z,64.10547
2024-05-09T06:06:27.700Z,64.34375
2024-05-09T06:07:28.735Z,64.17676
2024-05-09T06:08:30.289Z,63.81641
2024-05-09T06:09:28.688Z,63.61035
2024-05-09T06:10:35.099Z,63.17676
2024-05-09T06:11:28.856Z,63.74414
2024-05-09T06:12:27.825Z,63.36523
2024-05-09T06:13:27.712Z,63.45215
2024-05-09T06:14:28.828Z,63.21582
2024-05-09T06:15:27.711Z,63.57031
2024-05-09T06:16:28.757Z,63.66895
2024-05-09T06:17:27.794Z,63.25684
2024-05-09T06:18:27.929Z,63.04883
2024-05-09T06:19:28.892Z,63.41211
2024-05-09T06:20:35.431Z,62.84473
2024-05-09T06:21:28.866Z,63.08789
2024-05-09T06:22:27.755Z,62.57715
2024-05-09T06:23:30.718Z,62.71191
2024-05-09T06:24:28.729Z,63.18457
2024-05-09T06:25:27.787Z,62.95996
2024-05-09T06:26:28.857Z,62.53711
2024-05-09T06:27:27.767Z,62.77344
2024-05-09T06:28:28.764Z,62.59375
2024-05-09T06:29:28.917Z,62.58594
2024-05-09T06:30:35.213Z,62.3623
2024-05-09T06:31:28.827Z,62.10645
2024-05-09T06:32:27.961Z,61.49023
2024-05-09T06:33:29.028Z,61.26563
2024-05-09T06:34:28.827Z,61.51563
2024-05-09T06:35:27.877Z,61.41211
2024-05-09T06:36:28.791Z,61.76758
2024-05-09T06:37:27.806Z,61.49023
2024-05-09T06:38:28.778Z,61.68262
2024-05-09T06:39:28.770Z,61.86914
2024-05-09T06:40:36.617Z,61.8916
2024-05-09T06:41:28.929Z,61.64648
2024-05-09T06:42:27.780Z,61.32617
2024-05-09T06:43:28.765Z,61.2334
2024-05-09T06:44:28.843Z,61.17969
2024-05-09T06:45:28.766Z,61.10645
2024-05-09T06:46:27.819Z,60.95801
2024-05-09T06:47:27.981Z,60.94434
2024-05-09T06:48:28.945Z,61.12793
2024-05-09T06:49:28.920Z,61.27832
2024-05-09T06:50:35.716Z,61.02734
2024-05-09T06:51:27.794Z,60.56152
2024-05-09T06:52:34.660Z,60.88184
2024-05-09T06:53:27.950Z,59.63672
2024-05-09T06:54:28.802Z,60.15918
2024-05-09T06:55:28.819Z,60.43164
2024-05-09T06:56:27.861Z,60.02344
2024-05-09T06:57:28.804Z,60.57324
2024-05-09T06:58:27.815Z,60.13672
2024-05-09T06:59:29.134Z,60.49023
2024-05-09T07:00:35.617Z,60.31836
2024-05-09T07:01:28.916Z,60.94629
2024-05-09T07:02:28.958Z,60.14063
2024-05-09T07:03:27.966Z,59.13379
2024-05-09T07:04:28.996Z,59.8584
2024-05-09T07:05:28.908Z,60.09863
2024-05-09T07:06:27.847Z,59.85547
2024-05-09T07:07:28.825Z,59.375
2024-05-09T07:08:27.865Z,59.14551
2024-05-09T07:09:28.877Z,60.22168
2024-05-09T07:10:34.087Z,60.34961
2024-05-09T07:11:27.925Z,60.12012
2024-05-09T07:12:28.976Z,59.60449
2024-05-09T07:13:27.873Z,59.11816
2024-05-09T07:14:29.139Z,59.4541
2024-05-09T07:15:27.869Z,59.37207
2024-05-09T07:16:27.876Z,59.18555
2024-05-09T07:17:29.115Z,58.89258
2024-05-09T07:18:28.074Z,59.11914
2024-05-09T07:19:29.003Z,59.28711
2024-05-09T07:20:34.146Z,59.65332
2024-05-09T07:21:30.760Z,59.50098
2024-05-09T07:22:27.879Z,59.39355
2024-05-09T07:23:27.939Z,57.92188
2024-05-09T07:24:28.854Z,59.30762
2024-05-09T07:25:27.909Z,58.47168
2024-05-09T07:26:28.908Z,58.88379
2024-05-09T07:27:27.893Z,57.69824
2024-05-09T07:28:27.940Z,57.22949
2024-05-09T07:29:28.988Z,57.63379
2024-05-09T07:30:33.281Z,58.06934
2024-05-09T07:31:28.874Z,58.42676
2024-05-09T07:32:28.060Z,58.70996
2024-05-09T07:33:28.015Z,58.60449
2024-05-09T07:34:28.993Z,57.12988
2024-05-09T07:35:28.026Z,57.37891
2024-05-09T07:36:28.894Z,57.6416
2024-05-09T07:37:27.895Z,57.36133
2024-05-09T07:38:28.938Z,57.63184
2024-05-09T07:39:28.994Z,57.14746
2024-05-09T07:40:34.608Z,56.65918
2024-05-09T07:41:28.953Z,57.02539
2024-05-09T07:42:27.911Z,56.52148
2024-05-09T07:43:28.912Z,55.90527
2024-05-09T07:44:29.002Z,56.50488
2024-05-09T07:45:44.980Z,55.43945
2024-05-09T07:47:36.825Z,55.94336
2024-05-09T07:48:57.164Z,55.84473
2024-05-09T07:50:01.104Z,57.16406
2024-05-09T07:53:32.520Z,55.54395
2024-05-09T07:53:39.987Z,55.06836
2024-05-09T07:54:29.045Z,54.52539
2024-05-09T07:55:29.258Z,55.00684
2024-05-09T07:56:28.283Z,55.83105
2024-05-09T07:57:27.976Z,55.90527
2024-05-09T07:58:28.963Z,55.98047
2024-05-09T07:59:28.962Z,56.0127
2024-05-09T08:00:31.632Z,56.04395
2024-05-09T08:01:28.083Z,56.20996
2024-05-09T08:02:28.099Z,56.45996
2024-05-09T08:03:29.156Z,54.94336
2024-05-09T08:04:29.054Z,53.73535
2024-05-09T08:05:29.181Z,54.63965
2024-05-09T08:06:28.058Z,54.35156
2024-05-09T08:07:28.958Z,54.09766
2024-05-09T08:08:28.017Z,54.00391
2024-05-09T08:09:29.096Z,53.92285
2024-05-09T08:10:29.427Z,53.08105
2024-05-09T08:11:28.021Z,52.87012
2024-05-09T08:12:29.023Z,53.35059
2024-05-09T08:13:28.001Z,52.14355
2024-05-09T08:14:28.971Z,51.84082
2024-05-09T08:15:29.189Z,52.68066
2024-05-09T08:16:28.038Z,52.83887
2024-05-09T08:17:29.091Z,52.34082
2024-05-09T08:18:28.268Z,51.57031
2024-05-09T08:19:31.073Z,51.68066
2024-05-09T08:20:31.325Z,52.05762
2024-05-09T08:21:28.034Z,51.24512
2024-05-09T08:22:29.030Z,50.97461
2024-05-09T08:23:28.050Z,51.91406
2024-05-09T08:24:29.064Z,52.33887
2024-05-09T08:25:28.062Z,52.94141
2024-05-09T08:26:28.011Z,49.69824
2024-05-09T08:27:29.127Z,50.91992
2024-05-09T08:28:28.121Z,50.30957
2024-05-09T08:29:29.011Z,51.20996
2024-05-09T08:30:33.757Z,50.7207
2024-05-09T08:31:28.171Z,50.83008
2024-05-09T08:32:29.154Z,49.0791
2024-05-09T08:33:28.181Z,49.58398
2024-05-09T08:34:29.119Z,49.71973
2024-05-09T08:35:28.024Z,49.2959
2024-05-09T08:36:29.062Z,47.35449
2024-05-09T08:37:32.785Z,47.28516
2024-05-09T08:38:28.034Z,47.33105
2024-05-09T08:39:29.035Z,48.35059
2024-05-09T08:40:34.202Z,48.33301
2024-05-09T08:41:29.053Z,47.5957
2024-05-09T08:42:28.094Z,47.98438
2024-05-09T08:43:28.072Z,47.74805
2024-05-09T08:44:29.064Z,48.0332
2024-05-09T08:45:28.185Z,49.37207
2024-05-09T08:46:29.251Z,49.1123
2024-05-09T08:47:28.144Z,49.39355
2024-05-09T08:48:34.040Z,49.63086
2024-05-09T08:49:29.162Z,49.92871
2024-05-09T08:50:36.352Z,47.57031
2024-05-09T08:51:29.168Z,47.49902
2024-05-09T08:52:28.082Z,47.51367
2024-05-09T08:53:29.077Z,47.83008
2024-05-09T08:54:29.107Z,47.78906
2024-05-09T08:55:28.091Z,47.88477
2024-05-09T08:56:29.075Z,49.17578
2024-05-09T08:57:28.195Z,49.16895
2024-05-09T08:58:29.066Z,48.99121
2024-05-09T08:59:29.088Z,48.10645
2024-05-09T09:00:35.820Z,47.90234
2024-05-09T09:01:29.138Z,46.31836
2024-05-09T09:02:28.329Z,47.43555
2024-05-09T09:03:29.309Z,46.7168
2024-05-09T09:04:29.165Z,47.22852
2024-05-09T09:05:30.684Z,47.30469
2024-05-09T09:06:28.140Z,46.96289
2024-05-09T09:07:28.267Z,47.78027
2024-05-09T09:08:29.117Z,49.06055
2024-05-09T09:09:29.149Z,48.45508
2024-05-09T09:10:32.150Z,48.18164
2024-05-09T09:11:28.153Z,47.22559
2024-05-09T09:12:28.147Z,46.8584
2024-05-09T09:13:29.126Z,47.43652
2024-05-09T09:14:29.099Z,48.04688
2024-05-09T09:15:29.137Z,47.60059
2024-05-09T09:16:28.167Z,48.34668
2024-05-09T09:17:35.639Z,48.76465
2024-05-09T09:18:28.589Z,48.31348
2024-05-09T09:19:29.186Z,48.21777
2024-05-09T09:20:35.722Z,48.35156
2024-05-09T09:21:28.158Z,47.27344
2024-05-09T09:22:29.156Z,46.70801
2024-05-09T09:23:28.144Z,48.03418
2024-05-09T09:24:29.187Z,47.25293
2024-05-09T09:25:29.170Z,48.3457
2024-05-09T09:26:28.154Z,47.17871
2024-05-09T09:27:29.146Z,48.36523
2024-05-09T09:28:28.178Z,48.3457
2024-05-09T09:29:29.154Z,46.65723
2024-05-09T09:30:36.053Z,46.04102
2024-05-09T09:31:28.261Z,46.20508
2024-05-09T09:32:29.302Z,46.46582
2024-05-09T09:33:28.297Z,45.87207
2024-05-09T09:34:29.364Z,46.5752
2024-05-09T09:35:28.173Z,46.43555
2024-05-09T09:36:28.271Z,45.13672
2024-05-09T09:37:29.220Z,45.1709
2024-05-09T09:38:28.226Z,45.42871
2024-05-09T09:39:29.232Z,47.00098
2024-05-09T09:40:32.172Z,44.77441
2024-05-09T09:41:28.182Z,45.64551
2024-05-09T09:42:29.250Z,45.5293
2024-05-09T09:43:28.187Z,45.13184
2024-05-09T09:44:29.179Z,46.54297
2024-05-09T09:45:28.249Z,45.97461
2024-05-09T09:46:32.220Z,46.49805
2024-05-09T09:47:28.269Z,46.61328
2024-05-09T09:48:28.339Z,46.32129
2024-05-09T09:49:29.317Z,46.52441
2024-05-09T09:50:34.115Z,45.42676
2024-05-09T09:51:29.210Z,45
2024-05-09T09:52:28.292Z,45.54492
2024-05-09T09:53:28.213Z,44.88281
2024-05-09T09:54:29.243Z,45.69824
2024-05-09T09:55:28.235Z,45.57422
2024-05-09T09:56:29.239Z,45.73633
2024-05-09T09:57:28.285Z,46.42188
2024-05-09T09:58:28.396Z,46.52441
2024-05-09T09:59:29.213Z,45.37207
2024-05-09T10:00:32.873Z,45.07031
2024-05-09T10:01:29.328Z,46.12598
2024-05-09T10:02:28.369Z,45.0957
2024-05-09T10:03:29.403Z,44.28418
2024-05-09T10:04:29.358Z,44.48242
2024-05-09T10:05:28.443Z,44.10352
2024-05-09T10:06:29.266Z,44.60254
2024-05-09T10:07:28.272Z,45.00391
2024-05-09T10:08:29.227Z,45.22461
2024-05-09T10:09:29.279Z,45.49707
2024-05-09T10:10:32.430Z,45.8916
2024-05-09T10:11:29.384Z,45.86914
2024-05-09T10:12:28.306Z,45.62598
2024-05-09T10:13:29.292Z,45.4043
2024-05-09T10:14:29.265Z,45.72461
2024-05-09T10:15:50.939Z,45.3418
2024-05-09T10:16:28.308Z,44.47363
2024-05-09T10:17:28.375Z,44.81445
2024-05-09T10:18:31.252Z,45.12891
2024-05-09T10:19:29.405Z,45.39063
2024-05-09T10:21:29.319Z,44.74609
2024-05-09T10:22:28.331Z,44.5752
2024-05-09T10:23:29.405Z,44.49414
2024-05-09T10:24:29.351Z,45.35449
2024-05-09T10:25:29.302Z,44.0918
2024-05-09T10:26:28.289Z,45.34766
2024-05-09T10:27:28.356Z,44.22461
2024-05-09T10:28:29.328Z,43.0957
2024-05-09T10:29:29.288Z,43.8457
2024-05-09T10:30:34.353Z,44.23438
2024-05-09T10:31:28.349Z,44.03027
2024-05-09T10:32:29.387Z,43.70898
2024-05-09T10:33:28.425Z,43.82715
2024-05-09T10:34:29.378Z,44.46191
2024-05-09T10:35:29.296Z,44.53223
2024-05-09T10:36:28.469Z,43.72363
2024-05-09T10:37:29.448Z,44.875
2024-05-09T10:38:28.328Z,42.85449
2024-05-09T10:39:29.342Z,43.26758
2024-05-09T10:40:31.611Z,43.84863
2024-05-09T10:41:28.320Z,43.12207
2024-05-09T10:42:29.349Z,42.77344
2024-05-09T10:43:28.346Z,42.39063
2024-05-09T10:44:37.382Z,43.40625
2024-05-09T10:45:28.356Z,43.53418
2024-05-09T10:46:28.371Z,44.44043
2024-05-09T10:47:29.431Z,44.39551
2024-05-09T10:48:28.504Z,44.89453
2024-05-09T10:49:29.381Z,44.89063
2024-05-09T10:50:31.970Z,44.6123
2024-05-09T10:51:28.385Z,44.45215
2024-05-09T10:52:29.339Z,44.91797
2024-05-09T10:53:28.349Z,44.76758
2024-05-09T10:54:29.374Z,44.68066
2024-05-09T10:55:28.395Z,44.57813
2024-05-09T10:56:28.367Z,44.84863
2024-05-09T10:57:29.387Z,45.23145
2024-05-09T10:58:28.418Z,43.11035
2024-05-09T10:59:29.352Z,42.11621
2024-05-09T11:00:33.681Z,41.84863
2024-05-09T11:01:29.435Z,41.75977
2024-05-09T11:02:28.585Z,42.45508
2024-05-09T11:03:28.482Z,42.89746
2024-05-09T11:04:29.403Z,43.18457
2024-05-09T11:05:28.580Z,43.10352
2024-05-09T11:06:29.368Z,43.09473
2024-05-09T11:07:28.402Z,42.12305
2024-05-09T11:08:28.391Z,42.63672
2024-05-09T11:09:29.410Z,43.1543
2024-05-09T11:10:33.733Z,42.86621
2024-05-09T11:11:29.458Z,42.64941
2024-05-09T11:12:28.416Z,42.75684
2024-05-09T11:13:33.423Z,42.92188
2024-05-09T11:14:29.384Z,41.14453
2024-05-09T11:15:28.421Z,41.38965
2024-05-09T11:16:29.428Z,42.45117
2024-05-09T11:17:28.681Z,42.53613
2024-05-09T11:18:31.890Z,42.94531
2024-05-09T11:19:29.470Z,42.47949
2024-05-09T11:20:30.143Z,43.18848
2024-05-09T11:21:29.461Z,43.90137
2024-05-09T11:22:28.473Z,43.88281
2024-05-09T11:23:29.412Z,43.94336
2024-05-09T11:24:29.454Z,43.10449
2024-05-09T11:25:28.423Z,43.15332
2024-05-09T11:26:29.532Z,43.30859
2024-05-09T11:27:28.509Z,43.23047
2024-05-09T11:28:29.420Z,43.57031
2024-05-09T11:29:29.425Z,44.0459
2024-05-09T11:30:32.135Z,44.03613
2024-05-09T11:31:28.554Z,43.59961
2024-05-09T11:32:28.685Z,43.6377
2024-05-09T11:33:29.628Z,42.09473
2024-05-09T11:34:29.496Z,42.69824
2024-05-09T11:35:29.488Z,42.88574
2024-05-09T11:36:28.495Z,43.0293
2024-05-09T11:37:28.511Z,41.42969
2024-05-09T11:38:29.473Z,40.80371
2024-05-09T11:39:29.480Z,40.65137
2024-05-09T11:40:34.197Z,40.53613
2024-05-09T11:41:28.485Z,40.83203
2024-05-09T11:42:31.514Z,39.96094
2024-05-09T11:43:28.582Z,39.67188
2024-05-09T11:44:29.448Z,40.58398
2024-05-09T11:45:29.492Z,39.94434
2024-05-09T11:46:28.499Z,40.01855
2024-05-09T11:47:29.564Z,40.74121
2024-05-09T11:48:28.653Z,39.98926
2024-05-09T11:49:29.602Z,39.97168
2024-05-09T11:50:33.188Z,40.41309